Saint Germain, WI

11:45 AM CST on December 22, 2014 (GMT -0600)
Ross Lake | Change Station
CLOSE
Current Station
Personal Weather Station
Location: Woodruff, WI
Elevation: 1640 ft
Nearby Weather Stations
Active Advisory: Winter Weather Advisory Active Notice: Local Storm Report

Elev 1640 ft 45.96 °N, 89.60 °W | Updated 6 minutes ago

Fog
Fog
32.0 °F
Feels Like 25 °F
N
8.0
Wind Variable Wind from NE
Gusts 10.0 mph

Today
High -- | Low -- °F
--% Chance of Precip.
Yesterday
High -- | Low -- °F
Precip. -- in
7:37 AM 4:16 PM
New Moon, 1% visible
Pressure 29.78 in
Visibility 1.2 miles
Clouds Overcast 400 ft
Windchill 25 °F
Dew Point 31 °F
Humidity 95%
Rainfall 0.00 in
Snow Depth Not available.
UV 0 out of 12
Pollen .10 out of 12
Air Quality Not available.
Flu Activity Not available.
METAR KEGV 221735Z AUTO 14007KT 1 1/4SM BR OVC004 00/00 A2978 RMK AO2 T00000000

More Conditions Fewer Conditions

Pressure 29.78 in
Visibility 1.2 miles
Clouds Overcast 400 ft
Windchill 25 °F
Dew Point 31 °F
Humidity 95%
Rainfall 0.00 in
Snow Depth Not available.
UV 0 out of 12
Pollen .10 out of 12
Air Quality Not available.
Flu Activity Not available.
METAR KEGV 221735Z AUTO 14007KT 1 1/4SM BR OVC004 00/00 A2978 RMK AO2 T00000000

More Conditions Fewer Conditions

10-Day Weather Forecast

Almanac

Astronomy

Dec. 22, 2014 Rise Set
Actual Time
Civil Twilight
Nautical Twilight
Astronomical Twilight
Moon
Length of Visible Light
Length of Day
Tomorrow will be .
, % of the Moon is Illuminated

Today's Extremes

State Highs State Lows

Community

WunderPhotos

Upload Photos

1,779,655 photos uploaded!

WunderBlogs® & News

Nearby

Air Quality

  Air Quality AQ Index Pollutant
Not available.

Snow Depth

Station Depth Elevation

Earthquake Activity

City Distance Mag. Time & Date
Minimum magnitude displayed is 2.5.

Coastal Water Temperatures

Place Temperature

Nearby Weather Stations